Alblasserdam, Netherlands
Current Conditions -  °F | °C
As of 7:55 PM on Thursday 30 Oct 2014 (Local Time) from EHRD Reporting Station
Clear Clear  
Wind Chill: 57°   Ceiling: Unl
Heat Index: 57°   Visibility: 4mi
Dew Point: 55°   Wind: 9mph
Humidity: 94%   Direction: 170°S
Pressure: 30.15"   Gusts: NA
Location:  51.87°N, 4.66°E
Report Text: EHRD 301855Z AUTO 17008KT 7000 NCD 14/13 Q1021 TEMPO 8000
Loading
Personal Weather Stations






























Interactive Weather Map
Tropical Storm Tracking
New forecast layout! Learn more

10-Day Weather Forecast

Advertisements
Track Severe Weather on mobile